Seagoville, Texas
Current Conditions -  °F | °C
As of 3:50 PM on Sunday 21 Dec 2014 (Local Time) from KHQZ Reporting Station
Overcast Overcast  
Wind Chill: 50°   Ceiling: 2100
Heat Index: 50°   Visibility: 10mi
Dew Point: 45°   Wind: 12mph
Humidity: 82%   Direction: 150°SSE
Pressure: 29.89"   Gusts: 17mph
Location:  32.65°N, 96.54°W
Report Text: KHQZ 212150Z 15010G15KT 10SM OVC021 10/07 A2989 RMK PRESFR
Loading
Personal Weather Stations






























Interactive Weather Map New forecast layout! Learn more

10-Day Weather Forecast

Advertisements
Track Severe Weather on mobile